Time;durP1;ratioP1;P1;durP2;ratioP2;P2;SDS_P1;SDS_P2;PMS_P1;PMS_P2;Temp;Humidity;BMP_temperature;BMP_pressure;BME280_temperature;BME280_humidity;BME280_pressure;Samples;Min_cycle;Max_cycle;Signal;HPM_P1;HPM_P2
2024/02/23 00:01:58;;;;;;;0.03;0.03;;;;;;;12.26;46.48;98538.28;4489665;31;33670;-83
2024/02/23 00:04:26;;;;;;;0.37;0.37;;;;;;;12.27;46.57;98526.75;4491895;31;33896;-83
2024/02/23 00:06:53;;;;;;;0.45;0.45;;;;;;;12.49;46.11;98529.56;4476231;31;34441;-83
2024/02/23 00:09:21;;;;;;;1.10;0.37;;;;;;;12.45;46.19;98519.28;4488674;31;31863;-83
2024/02/23 00:11:49;;;;;;;0.65;0.40;;;;;;;12.55;45.95;98520.31;4488705;31;33300;-83
2024/02/23 00:14:18;;;;;;;1.25;0.62;;;;;;;12.67;45.94;98524.72;4489688;31;32580;-83
2024/02/23 00:16:46;;;;;;;0.20;0.20;;;;;;;12.64;45.88;98524.94;4488108;31;33927;-82
2024/02/23 00:19:15;;;;;;;0.17;0.17;;;;;;;12.66;45.84;98522.19;4488504;31;33852;-82
2024/02/23 00:21:42;;;;;;;0.20;0.20;;;;;;;12.72;45.87;98529.69;4490119;31;34257;-82
2024/02/23 00:24:10;;;;;;;0.35;0.30;;;;;;;12.84;45.62;98526.16;4488605;31;33575;-82
2024/02/23 00:26:38;;;;;;;0.15;0.15;;;;;;;12.82;45.51;98533.38;4491804;31;35901;-82
2024/02/23 00:29:05;;;;;;;0.10;0.10;;;;;;;12.80;45.79;98520.22;4490658;31;34182;-83
2024/02/23 00:31:33;;;;;;;0.25;0.25;;;;;;;12.68;45.76;98520.28;4489196;31;33391;-83
2024/02/23 00:34:01;;;;;;;1.30;1.20;;;;;;;12.44;46.45;98526.41;4479207;31;34793;-83
2024/02/23 00:36:29;;;;;;;0.00;0.00;;;;;;;12.74;45.85;98530.44;4492664;31;34394;-83
2024/02/23 00:38:56;;;;;;;0.28;0.20;;;;;;;12.65;45.94;98528.44;4491439;31;33965;-83
2024/02/23 00:41:24;;;;;;;0.00;0.00;;;;;;;12.88;45.48;98526.78;4487783;31;33596;-83
2024/02/23 00:43:51;;;;;;;0.77;0.08;;;;;;;12.96;45.21;98525.25;4477069;31;32605;-83
2024/02/23 00:46:19;;;;;;;1.55;0.30;;;;;;;13.07;45.12;98525.31;4490426;31;33617;-83
2024/02/23 00:48:47;;;;;;;0.28;0.28;;;;;;;12.72;46.23;98527.91;4488782;31;34492;-84
2024/02/23 00:51:14;;;;;;;0.00;0.00;;;;;;;12.49;46.72;98524.25;4489578;31;33431;-83
2024/02/23 00:53:42;;;;;;;0.90;0.55;;;;;;;12.34;47.52;98521.84;4493301;31;34533;-83
2024/02/23 00:56:10;;;;;;;0.35;0.35;;;;;;;12.55;47.48;98529.09;4470050;31;34304;-83
2024/02/23 00:58:37;;;;;;;0.20;0.10;;;;;;;12.34;48.27;98519.19;4496652;31;33195;-85
2024/02/23 01:01:05;;;;;;;0.43;0.32;;;;;;;12.47;48.30;98512.06;4494174;31;33422;-85
2024/02/23 01:03:34;;;;;;;0.80;0.80;;;;;;;12.73;48.13;98512.84;4497460;31;33684;-86
2024/02/23 01:06:01;;;;;;;0.00;0.00;;;;;;;12.23;49.69;98525.25;4480501;31;33984;-86
2024/02/23 01:08:29;;;;;;;0.20;0.20;;;;;;;12.49;49.63;98513.66;4470452;31;33070;-85
2024/02/23 01:10:57;;;;;;;0.00;0.00;;;;;;;12.42;50.13;98520.34;4495550;31;33557;-86
2024/02/23 01:13:25;;;;;;;0.75;0.57;;;;;;;12.30;51.05;98523.88;4494814;31;34320;-85
2024/02/23 01:15:53;;;;;;;0.00;0.00;;;;;;;11.98;52.00;98516.41;4493744;31;34661;-85
2024/02/23 01:18:21;;;;;;;0.55;0.55;;;;;;;12.15;51.94;98501.13;4495528;31;33634;-85
2024/02/23 01:20:49;;;;;;;0.17;0.17;;;;;;;12.12;53.06;98506.66;4495962;31;32999;-84
2024/02/23 01:23:17;;;;;;;0.45;0.45;;;;;;;11.79;54.20;98511.50;4482058;31;33834;-84
2024/02/23 01:25:45;;;;;;;0.13;0.13;;;;;;;11.86;54.36;98506.66;4472013;31;33058;-84
2024/02/23 01:28:13;;;;;;;4.87;1.37;;;;;;;11.94;54.41;98508.78;4493602;31;34442;-85
2024/02/23 01:30:40;;;;;;;0.43;0.43;;;;;;;12.09;54.31;98512.16;4482646;31;32215;-85
2024/02/23 01:33:08;;;;;;;0.00;0.00;;;;;;;12.06;54.46;98513.22;4481037;31;33471;-85
2024/02/23 01:35:36;;;;;;;0.00;0.00;;;;;;;12.10;54.90;98511.19;4481945;31;33417;-85
2024/02/23 01:38:04;;;;;;;3.87;0.50;;;;;;;12.11;55.67;98499.69;4482493;31;33700;-84
2024/02/23 01:40:33;;;;;;;0.52;0.52;;;;;;;11.84;56.11;98498.00;4493160;31;33717;-83
2024/02/23 01:43:04;;;;;;;0.88;0.52;;;;;;;11.82;56.57;98499.91;4479938;31;33041;-82
2024/02/23 01:45:33;;;;;;;0.17;0.17;;;;;;;11.67;56.72;98490.34;4482709;31;32996;-83
2024/02/23 01:48:02;;;;;;;0.80;0.80;;;;;;;11.60;57.13;98499.66;4467801;31;32694;-83
2024/02/23 01:50:29;;;;;;;0.10;0.10;;;;;;;11.77;57.17;98496.69;4493906;31;33407;-82
2024/02/23 01:53:02;;;;;;;0.47;0.47;;;;;;;11.78;56.92;98490.47;4495553;31;33966;-82
2024/02/23 01:55:31;;;;;;;0.10;0.10;;;;;;;11.75;57.00;98494.16;4494633;31;33654;-83
2024/02/23 01:58:04;;;;;;;0.00;0.00;;;;;;;11.74;57.30;98491.63;4495974;31;33940;-83
2024/02/23 02:00:36;;;;;;;0.10;0.10;;;;;;;11.89;56.69;98485.31;4492053;31;33071;-83
2024/02/23 02:03:04;;;;;;;0.75;0.75;;;;;;;11.91;56.42;98488.69;4495625;31;33983;-83
2024/02/23 02:05:37;;;;;;;0.00;0.00;;;;;;;11.88;56.77;98486.25;4481637;31;33914;-83
2024/02/23 02:08:05;;;;;;;0.13;0.13;;;;;;;12.31;55.78;98480.56;4480276;31;34475;-83
2024/02/23 02:10:33;;;;;;;0.65;0.65;;;;;;;12.24;56.20;98485.44;4489908;31;33339;-83
2024/02/23 02:13:03;;;;;;;0.40;0.40;;;;;;;12.29;55.91;98477.19;4477379;31;33606;-82
2024/02/23 02:15:31;;;;;;;0.00;0.00;;;;;;;12.28;55.78;98476.34;4474995;31;32583;-84
2024/02/23 02:17:58;;;;;;;0.37;0.37;;;;;;;12.11;56.29;98467.94;4489185;31;33073;-85
2024/02/23 02:20:28;;;;;;;0.20;0.20;;;;;;;12.05;56.71;98470.03;4488856;31;33578;-84
2024/02/23 02:22:56;;;;;;;0.17;0.17;;;;;;;11.78;57.41;98472.81;4486656;31;34700;-84
2024/02/23 02:25:23;;;;;;;0.03;0.03;;;;;;;11.73;57.81;98474.09;4491547;31;32749;-84
2024/02/23 02:27:51;;;;;;;0.00;0.00;;;;;;;11.93;56.85;98476.19;4462795;31;32341;-84
2024/02/23 02:30:19;;;;;;;0.00;0.00;;;;;;;12.11;56.57;98473.22;4479154;31;32313;-84
2024/02/23 02:32:47;;;;;;;0.52;0.52;;;;;;;11.75;57.33;98477.44;4492278;31;34607;-84
2024/02/23 02:35:15;;;;;;;0.22;0.22;;;;;;;11.86;57.20;98482.03;4488191;31;34002;-84
2024/02/23 02:37:43;;;;;;;0.17;0.17;;;;;;;11.95;57.05;98484.87;4485368;31;32457;-84
2024/02/23 02:40:11;;;;;;;0.10;0.10;;;;;;;11.95;57.83;98473.44;4467428;31;31908;-84
2024/02/23 02:42:38;;;;;;;0.15;0.15;;;;;;;12.10;56.74;98471.50;4477215;31;34507;-85
2024/02/23 02:45:06;;;;;;;0.52;0.52;;;;;;;12.01;57.15;98479.16;4465230;31;34398;-85
2024/02/23 02:47:36;;;;;;;0.17;0.17;;;;;;;11.86;57.28;98480.22;4490346;31;33772;-84
2024/02/23 02:50:06;;;;;;;0.30;0.30;;;;;;;12.18;57.36;98477.09;4489626;31;34032;-85
2024/02/23 02:52:34;;;;;;;0.55;0.30;;;;;;;12.05;57.95;98475.31;4491689;31;34812;-84
2024/02/23 02:55:02;;;;;;;2.22;0.43;;;;;;;12.00;58.60;98477.44;4494281;31;34038;-84
2024/02/23 02:57:29;;;;;;;0.15;0.15;;;;;;;12.14;58.02;98470.34;4476272;31;33940;-85
2024/02/23 02:59:57;;;;;;;0.13;0.13;;;;;;;11.98;58.11;98474.06;4479281;31;31891;-85
2024/02/23 03:02:25;;;;;;;0.62;0.47;;;;;;;12.36;57.72;98475.78;4487032;31;33037;-85
2024/02/23 03:04:54;;;;;;;0.82;0.73;;;;;;;12.07;58.05;98477.03;4476643;31;33147;-85
2024/02/23 03:07:22;;;;;;;0.00;0.00;;;;;;;11.58;59.76;98468.03;4490471;31;32470;-85
2024/02/23 03:09:50;;;;;;;0.60;0.60;;;;;;;11.58;59.89;98478.59;4479753;31;33609;-85
2024/02/23 03:12:18;;;;;;;0.32;0.32;;;;;;;11.74;60.32;98481.91;4495424;31;34438;-85
2024/02/23 03:14:46;;;;;;;0.25;0.25;;;;;;;11.73;60.57;98477.56;4477495;31;34982;-87
2024/02/23 03:17:14;;;;;;;0.80;0.43;;;;;;;11.60;61.05;98479.38;4474582;31;31987;-87
2024/02/23 03:19:41;;;;;;;1.65;1.10;;;;;;;11.65;60.90;98487.81;4478059;31;34139;-87
2024/02/23 03:22:09;;;;;;;0.17;0.17;;;;;;;11.65;61.37;98481.69;4491707;31;33921;-86
2024/02/23 03:24:37;;;;;;;0.03;0.03;;;;;;;11.50;61.54;98495.00;4479539;31;34770;-86
2024/02/23 03:27:05;;;;;;;2.17;1.50;;;;;;;11.83;61.32;98480.44;4489724;31;34134;-86
2024/02/23 03:29:33;;;;;;;0.00;0.00;;;;;;;11.99;61.45;98475.75;4475393;31;32543;-86
2024/02/23 03:32:01;;;;;;;0.00;0.00;;;;;;;11.95;60.97;98484.87;4478026;31;33861;-87
2024/02/23 03:34:29;;;;;;;0.10;0.10;;;;;;;11.71;61.69;98486.53;4476591;31;33762;-84
2024/02/23 03:36:58;;;;;;;1.77;1.65;;;;;;;11.96;61.01;98481.28;4476110;31;32656;-84
2024/02/23 03:39:25;;;;;;;0.20;0.20;;;;;;;11.82;61.60;98488.44;4464339;31;32337;-84
2024/02/23 03:41:53;;;;;;;0.20;0.20;;;;;;;12.02;60.90;98475.56;4478852;31;33353;-85
2024/02/23 03:44:21;;;;;;;0.90;0.62;;;;;;;11.69;61.73;98485.81;4477651;31;34701;-85
2024/02/23 03:46:48;;;;;;;0.35;0.35;;;;;;;11.63;62.33;98489.75;4466080;31;33072;-85
2024/02/23 03:49:16;;;;;;;2.65;0.30;;;;;;;11.53;62.28;98480.72;4478373;31;33903;-85
2024/02/23 03:51:45;;;;;;;0.00;0.00;;;;;;;11.56;62.19;98490.25;4489664;31;33826;-84
2024/02/23 03:54:12;;;;;;;0.10;0.10;;;;;;;11.88;61.24;98482.78;4478873;31;34424;-85
2024/02/23 03:56:41;;;;;;;0.00;0.00;;;;;;;11.15;63.55;98480.69;4478972;31;34133;-84
2024/02/23 03:59:09;;;;;;;0.68;0.55;;;;;;;11.17;63.19;98486.72;4476192;31;32545;-85
2024/02/23 04:01:39;;;;;;;0.10;0.10;;;;;;;11.24;63.07;98482.69;4478924;31;34150;-85
2024/02/23 04:04:07;;;;;;;0.32;0.32;;;;;;;11.22;63.86;98490.75;4477087;31;34298;-84
2024/02/23 04:06:35;;;;;;;0.00;0.00;;;;;;;11.32;63.22;98488.31;4462505;31;32741;-84
2024/02/23 04:09:06;;;;;;;0.00;0.00;;;;;;;11.62;62.29;98487.19;4480187;31;34035;-84
2024/02/23 04:11:34;;;;;;;0.00;0.00;;;;;;;11.61;62.42;98488.12;4493140;31;33701;-84
2024/02/23 04:14:01;;;;;;;0.10;0.10;;;;;;;11.68;62.13;98498.19;4464005;31;34212;-84
2024/02/23 04:16:29;;;;;;;0.90;0.37;;;;;;;11.58;62.19;98498.91;4478017;31;32845;-84
2024/02/23 04:18:57;;;;;;;0.00;0.00;;;;;;;11.66;62.40;98499.25;4466408;31;32694;-84
2024/02/23 04:21:25;;;;;;;0.00;0.00;;;;;;;11.10;63.04;98490.72;4477541;31;33758;-84
2024/02/23 04:23:53;;;;;;;0.25;0.25;;;;;;;11.43;62.32;98493.72;4476827;31;32526;-85
2024/02/23 04:26:20;;;;;;;0.10;0.10;;;;;;;11.80;61.50;98484.09;4476630;31;33624;-84
2024/02/23 04:28:48;;;;;;;0.37;0.37;;;;;;;11.37;62.66;98493.31;4489144;31;33394;-84
2024/02/23 04:31:16;;;;;;;0.10;0.10;;;;;;;11.21;63.40;98493.50;4479400;31;34236;-84
2024/02/23 04:33:44;;;;;;;0.20;0.20;;;;;;;11.25;63.19;98500.25;4480277;31;34693;-84
2024/02/23 04:36:12;;;;;;;0.30;0.30;;;;;;;11.54;62.12;98490.38;4493505;31;33834;-85
2024/02/23 04:38:39;;;;;;;0.65;0.65;;;;;;;11.45;62.38;98498.91;4478771;31;32323;-84
2024/02/23 04:41:07;;;;;;;0.00;0.00;;;;;;;11.31;62.66;98499.84;4488889;31;33726;-84
2024/02/23 04:43:35;;;;;;;0.00;0.00;;;;;;;11.38;62.62;98495.84;4490657;31;33857;-84
2024/02/23 04:46:03;;;;;;;0.20;0.20;;;;;;;11.53;61.70;98500.06;4479001;31;33270;-84
2024/02/23 04:48:31;;;;;;;0.98;0.88;;;;;;;11.30;62.55;98503.44;4490327;31;34281;-84
2024/02/23 04:50:58;;;;;;;0.05;0.05;;;;;;;11.73;61.38;98495.25;4478775;31;33444;-84
2024/02/23 04:53:26;;;;;;;0.40;0.40;;;;;;;11.53;61.46;98500.06;4477572;31;33068;-85
2024/02/23 04:55:54;;;;;;;0.45;0.43;;;;;;;11.59;61.34;98500.63;4478789;31;33171;-85
2024/02/23 04:58:22;;;;;;;0.62;0.62;;;;;;;11.31;62.15;98499.00;4492892;31;33133;-85
2024/02/23 05:00:49;;;;;;;0.00;0.00;;;;;;;11.30;61.87;98498.16;4491847;31;33879;-84
2024/02/23 05:03:17;;;;;;;0.20;0.20;;;;;;;11.61;61.01;98509.28;4478690;31;33996;-84
2024/02/23 05:05:45;;;;;;;0.00;0.00;;;;;;;11.58;60.94;98505.03;4489482;31;33522;-84
2024/02/23 05:08:12;;;;;;;0.43;0.13;;;;;;;11.45;61.46;98509.50;4491173;31;33121;-85
2024/02/23 05:10:40;;;;;;;0.43;0.43;;;;;;;11.89;60.14;98506.47;4478297;31;33907;-84
2024/02/23 05:13:08;;;;;;;0.10;0.10;;;;;;;12.21;59.43;98506.84;4475323;31;33864;-84
2024/02/23 05:15:35;;;;;;;0.20;0.20;;;;;;;12.27;58.90;98514.34;4477216;31;33741;-85
2024/02/23 05:18:04;;;;;;;0.00;0.00;;;;;;;11.64;60.48;98523.16;4475726;31;31915;-84
2024/02/23 05:20:32;;;;;;;0.10;0.10;;;;;;;11.46;60.84;98521.75;4488097;31;33472;-84
2024/02/23 05:22:59;;;;;;;0.00;0.00;;;;;;;11.83;60.28;98512.19;4491752;31;34082;-83
2024/02/23 05:25:27;;;;;;;0.10;0.10;;;;;;;12.10;59.06;98529.72;4489732;31;33222;-83
2024/02/23 05:27:55;;;;;;;0.00;0.00;;;;;;;12.11;59.27;98532.28;4478983;31;32391;-83
2024/02/23 05:30:22;;;;;;;1.00;0.93;;;;;;;12.15;59.11;98535.53;4486631;31;33953;-83
2024/02/23 05:32:50;;;;;;;0.10;0.10;;;;;;;12.27;59.08;98537.31;4492801;31;34904;-84
2024/02/23 05:35:18;;;;;;;0.00;0.00;;;;;;;12.21;58.97;98543.91;4490946;31;34608;-84
2024/02/23 05:37:46;;;;;;;0.10;0.10;;;;;;;11.88;60.31;98548.91;4462873;31;32153;-84
2024/02/23 05:40:15;;;;;;;0.10;0.10;;;;;;;12.16;nan;98545.19;4476649;31;31981;-83
2024/02/23 05:42:42;;;;;;;1.08;0.32;;;;;;;12.37;59.33;98554.25;4480115;31;33351;-83
2024/02/23 05:45:10;;;;;;;0.15;0.15;;;;;;;12.16;60.82;98553.97;4490625;31;34493;-84
2024/02/23 05:47:38;;;;;;;0.17;0.10;;;;;;;12.26;60.98;98573.53;4465605;31;34215;-83
2024/02/23 05:50:09;;;;;;;0.00;0.00;;;;;;;12.39;59.49;98575.31;4492164;31;33462;-83
2024/02/23 05:52:36;;;;;;;0.00;0.00;;;;;;;12.48;59.46;98578.16;4478209;31;34861;-85
2024/02/23 05:55:04;;;;;;;0.10;0.10;;;;;;;12.45;59.88;98578.38;4477415;31;33536;-84
2024/02/23 05:57:32;;;;;;;0.55;0.55;;;;;;;12.43;60.28;98587.38;4493341;31;34053;-83
2024/02/23 05:59:59;;;;;;;0.25;0.25;;;;;;;12.36;59.82;98594.91;4491807;31;34676;-84
2024/02/23 06:02:27;;;;;;;0.47;0.47;;;;;;;12.66;58.93;98596.34;4492440;31;33291;-84
2024/02/23 06:04:55;;;;;;;0.30;0.30;;;;;;;12.13;60.32;98606.25;4492591;31;33500;-84
2024/02/23 06:07:28;;;;;;;0.00;0.00;;;;;;;12.40;59.75;98600.84;4478619;31;32541;-86
2024/02/23 06:09:57;;;;;;;0.32;0.32;;;;;;;12.63;59.42;98601.84;4491424;31;34591;-84
2024/02/23 06:12:25;;;;;;;0.22;0.22;;;;;;;12.40;59.98;98612.28;4476136;31;33193;-84
2024/02/23 06:14:52;;;;;;;0.00;0.00;;;;;;;12.18;61.35;98620.00;4489911;31;31175;-83
2024/02/23 06:17:20;;;;;;;0.35;0.35;;;;;;;12.24;60.76;98619.56;4489437;31;34057;-84
2024/02/23 06:19:48;;;;;;;3.40;1.23;;;;;;;12.32;60.34;98621.69;4491404;31;34195;-83
2024/02/23 06:22:20;;;;;;;0.75;0.17;;;;;;;12.52;60.03;98616.69;4487808;31;32663;-84
2024/02/23 06:24:48;;;;;;;0.35;0.35;;;;;;;12.54;60.34;98625.38;4488680;31;32180;-83
2024/02/23 06:27:16;;;;;;;7.57;0.77;;;;;;;12.57;59.96;98619.84;4478396;31;32809;-83
2024/02/23 06:29:43;;;;;;;0.65;0.65;;;;;;;12.28;61.65;98635.13;4475533;31;31891;-84
2024/02/23 06:32:11;;;;;;;0.08;0.08;;;;;;;12.45;61.05;98636.63;4488452;31;34063;-84
2024/02/23 06:34:39;;;;;;;0.10;0.10;;;;;;;12.37;61.64;98635.47;4489221;31;32415;-84
2024/02/23 06:37:06;;;;;;;1.50;0.52;;;;;;;12.55;61.43;98637.66;4472940;31;32337;-84
2024/02/23 06:39:35;;;;;;;0.03;0.03;;;;;;;12.26;62.42;98641.50;4475194;31;32584;-83
2024/02/23 06:42:04;;;;;;;0.00;0.00;;;;;;;12.23;62.63;98642.53;4488457;31;33664;-81
2024/02/23 06:44:32;;;;;;;0.43;0.43;;;;;;;12.23;63.23;98639.91;4490253;31;32044;-82
2024/02/23 06:47:00;;;;;;;0.00;0.00;;;;;;;12.18;63.02;98638.53;4472044;31;32580;-82
2024/02/23 06:49:27;;;;;;;0.00;0.00;;;;;;;12.08;63.19;98646.25;4491955;31;33960;-81
2024/02/23 06:51:55;;;;;;;0.47;0.37;;;;;;;12.09;64.06;98649.75;4488920;31;34101;-81
2024/02/23 06:54:23;;;;;;;0.73;0.73;;;;;;;11.99;64.01;98652.16;4474909;31;33399;-81
2024/02/23 06:56:51;;;;;;;0.10;0.10;;;;;;;12.03;64.63;98662.44;4490799;31;33204;-82
2024/02/23 06:59:18;;;;;;;0.30;0.30;;;;;;;12.19;63.66;98654.28;4477696;31;33589;-81
2024/02/23 07:01:50;;;;;;;0.43;0.43;;;;;;;12.09;64.62;98650.59;4491555;31;36946;-82
2024/02/23 07:04:18;;;;;;;0.00;0.00;;;;;;;11.97;65.31;98654.09;4491782;31;33008;-83
2024/02/23 07:06:47;;;;;;;1.85;0.30;;;;;;;11.89;64.88;98651.94;4476242;31;33926;-82
2024/02/23 07:09:14;;;;;;;0.32;0.08;;;;;;;11.72;66.23;98655.66;4491634;31;33879;-82
2024/02/23 07:11:43;;;;;;;0.22;0.22;;;;;;;11.81;65.77;98662.16;4476402;31;35693;-82
2024/02/23 07:14:16;;;;;;;0.75;0.75;;;;;;;11.81;65.86;98662.16;4475398;31;32358;-82
2024/02/23 07:16:47;;;;;;;0.82;0.80;;;;;;;12.03;65.72;98654.50;4478473;31;34270;-82
2024/02/23 07:19:14;;;;;;;2.58;0.52;;;;;;;11.82;66.11;98669.19;4490832;31;33558;-82
2024/02/23 07:21:42;;;;;;;0.15;0.15;;;;;;;11.96;65.98;98662.94;4475337;31;32422;-82
2024/02/23 07:24:11;;;;;;;0.57;0.57;;;;;;;11.93;66.57;98671.94;4478738;31;32440;-82
2024/02/23 07:26:38;;;;;;;0.20;0.20;;;;;;;12.13;65.40;98667.09;4489073;31;34037;-82
2024/02/23 07:29:07;;;;;;;1.33;0.57;;;;;;;12.23;65.32;98673.47;4487263;31;34707;-82
2024/02/23 07:31:35;;;;;;;0.47;0.47;;;;;;;11.95;65.99;98679.78;4464549;31;34098;-82
2024/02/23 07:34:02;;;;;;;2.00;1.55;;;;;;;11.55;68.12;98677.09;4474302;31;34431;-82
2024/02/23 07:36:31;;;;;;;9.00;2.40;;;;;;;11.87;66.15;98677.66;4466051;31;34002;-82
2024/02/23 07:38:59;;;;;;;0.28;0.28;;;;;;;11.75;66.65;98679.28;4477636;31;33235;-81
2024/02/23 07:41:27;;;;;;;0.55;0.55;;;;;;;11.90;66.30;98682.72;4479045;31;34717;-82
2024/02/23 07:43:54;;;;;;;8.32;0.95;;;;;;;11.37;68.25;98683.59;4465391;31;32978;-82
2024/02/23 07:46:22;;;;;;;0.47;0.47;;;;;;;11.43;67.33;98680.53;4448412;31;32551;-83
2024/02/23 07:48:54;;;;;;;0.45;0.45;;;;;;;11.53;67.71;98686.91;4477340;31;34664;-83
2024/02/23 07:51:21;;;;;;;0.00;0.00;;;;;;;11.89;66.45;98685.47;4471900;31;33412;-82
2024/02/23 07:53:50;;;;;;;0.00;0.00;;;;;;;11.73;67.68;98690.91;4477532;31;32752;-83
2024/02/23 07:56:17;;;;;;;0.20;0.20;;;;;;;11.94;66.93;98683.37;4490440;31;33475;-83
2024/02/23 07:58:45;;;;;;;2.05;1.33;;;;;;;12.07;66.26;98684.25;4478114;31;33429;-83
2024/02/23 08:01:16;;;;;;;0.70;0.70;;;;;;;11.67;68.01;98696.59;4453586;31;35273;-83
2024/02/23 08:03:44;;;;;;;0.10;0.10;;;;;;;11.69;67.68;98694.72;4487900;31;33679;-83
2024/02/23 08:06:12;;;;;;;0.28;0.28;;;;;;;11.72;67.58;98695.34;4478446;32;33231;-83
2024/02/23 08:08:40;;;;;;;0.43;0.43;;;;;;;12.00;67.29;98693.53;4491105;31;33847;-83
2024/02/23 08:11:08;;;;;;;0.50;0.50;;;;;;;12.01;67.13;98690.81;4476588;31;33749;-83
2024/02/23 08:13:36;;;;;;;0.77;0.60;;;;;;;11.97;66.86;98699.06;4481078;31;33393;-83
2024/02/23 08:16:04;;;;;;;2.25;0.68;;;;;;;12.17;65.93;98695.91;4490312;31;32284;-83
2024/02/23 08:18:32;;;;;;;0.15;0.15;;;;;;;12.12;66.15;98710.41;4479421;31;33441;-83
2024/02/23 08:21:02;;;;;;;1.52;0.60;;;;;;;11.87;67.15;98708.53;4481420;31;33209;-82
2024/02/23 08:23:30;;;;;;;0.10;0.10;;;;;;;12.24;65.73;98701.62;4480091;31;34415;-82
2024/02/23 08:26:00;;;;;;;0.20;0.20;;;;;;;12.33;66.03;98701.00;4491195;31;33466;-83
2024/02/23 08:28:27;;;;;;;0.30;0.30;;;;;;;12.28;66.19;98703.94;4480020;31;33400;-83
2024/02/23 08:30:55;;;;;;;1.20;0.60;;;;;;;12.51;65.27;98710.31;4465632;31;33054;-83
2024/02/23 08:33:23;;;;;;;0.20;0.20;;;;;;;12.39;65.54;98713.84;4487865;31;33840;-82
2024/02/23 08:35:51;;;;;;;0.17;0.17;;;;;;;12.49;65.56;98714.88;4479255;31;32631;-83
2024/02/23 08:38:19;;;;;;;0.30;0.28;;;;;;;12.69;64.37;98716.16;4491375;31;33943;-83
2024/02/23 08:40:47;;;;;;;4.03;0.82;;;;;;;12.76;63.92;98714.75;4476998;31;34368;-83
2024/02/23 08:43:15;;;;;;;0.20;0.20;;;;;;;12.71;64.81;98721.34;4477704;31;33847;-83
2024/02/23 08:45:43;;;;;;;1.25;0.68;;;;;;;12.67;65.09;98726.00;4473491;31;34051;-83
2024/02/23 08:48:14;;;;;;;0.13;0.10;;;;;;;12.78;64.76;98717.31;4489301;31;33502;-82
2024/02/23 08:50:42;;;;;;;1.45;0.52;;;;;;;12.48;65.49;98722.91;4478283;31;33811;-83
2024/02/23 08:53:10;;;;;;;0.30;0.30;;;;;;;12.48;65.34;98725.56;4492828;31;34763;-83
2024/02/23 08:55:38;;;;;;;1.02;0.82;;;;;;;12.62;64.93;98727.25;4479258;31;33697;-83
2024/02/23 08:58:06;;;;;;;0.00;0.00;;;;;;;12.59;65.17;98731.00;4481615;31;33428;-82
2024/02/23 09:00:34;;;;;;;0.20;0.20;;;;;;;12.71;64.03;98729.28;4475402;32;33925;-83
2024/02/23 09:03:02;;;;;;;0.40;0.40;;;;;;;12.47;65.23;98732.66;4474659;32;34198;-83
2024/02/23 09:05:30;;;;;;;1.27;0.57;;;;;;;12.38;66.46;98738.59;4473304;31;33998;-83
2024/02/23 09:07:57;;;;;;;1.85;1.75;;;;;;;12.13;66.39;98746.50;4474112;31;33307;-82
2024/02/23 09:10:25;;;;;;;1.67;0.77;;;;;;;12.36;65.85;98734.34;4475545;31;33480;-83
2024/02/23 09:12:53;;;;;;;2.17;1.98;;;;;;;12.60;65.16;98739.78;4488012;31;33285;-83
2024/02/23 09:15:21;;;;;;;1.27;1.23;;;;;;;12.86;64.41;98746.75;4490918;31;33039;-83
2024/02/23 09:17:49;;;;;;;0.65;0.40;;;;;;;13.00;64.34;98741.31;4489632;31;33817;-83
2024/02/23 09:20:17;;;;;;;0.35;0.25;;;;;;;12.84;64.95;98742.53;4466354;31;32448;-83
2024/02/23 09:22:45;;;;;;;0.65;0.65;;;;;;;12.73;65.23;98749.41;4467239;31;33398;-83
2024/02/23 09:25:13;;;;;;;4.28;0.88;;;;;;;12.49;65.83;98746.66;4478594;31;33447;-83
2024/02/23 09:27:43;;;;;;;1.25;1.17;;;;;;;12.77;64.70;98747.38;4479602;31;34721;-82
2024/02/23 09:30:12;;;;;;;0.55;0.30;;;;;;;12.82;64.62;98738.19;4464698;31;32403;-83
2024/02/23 09:32:41;;;;;;;0.45;0.45;;;;;;;12.86;64.60;98744.09;4476360;31;33923;-82
2024/02/23 09:35:09;;;;;;;0.32;0.32;;;;;;;12.96;64.74;98747.81;4471847;31;32381;-83
2024/02/23 09:37:37;;;;;;;0.00;0.00;;;;;;;13.08;64.18;98736.34;4466967;31;34129;-83
2024/02/23 09:40:06;;;;;;;1.45;0.52;;;;;;;13.22;63.69;98742.50;4487874;31;33898;-83
2024/02/23 09:42:34;;;;;;;0.40;0.40;;;;;;;13.26;63.79;98738.69;4467682;31;32852;-82
2024/02/23 09:45:02;;;;;;;0.20;0.20;;;;;;;13.10;64.49;98745.97;4476961;31;33618;-82
2024/02/23 09:47:31;;;;;;;3.87;1.50;;;;;;;13.16;64.36;98748.22;4477578;31;34462;-82
2024/02/23 09:50:00;;;;;;;0.65;0.65;;;;;;;13.25;64.30;98747.59;4477851;31;32896;-82
2024/02/23 09:52:28;;;;;;;0.00;0.00;;;;;;;13.35;63.99;98748.63;4475487;31;33619;-82
2024/02/23 09:54:57;;;;;;;0.40;0.40;;;;;;;13.39;63.77;98750.09;4477738;31;33266;-82
2024/02/23 09:57:25;;;;;;;1.10;1.00;;;;;;;13.39;64.04;98757.19;4493237;31;33754;-82
2024/02/23 09:59:52;;;;;;;5.15;0.73;;;;;;;13.45;63.73;98749.66;4479016;31;33533;-82
2024/02/23 10:02:20;;;;;;;0.45;0.45;;;;;;;13.51;63.51;98749.19;4490926;31;33492;-82
2024/02/23 10:04:50;;;;;;;0.85;0.85;;;;;;;13.50;63.69;98752.81;4492362;31;31874;-83
2024/02/23 10:07:17;;;;;;;4.25;0.35;;;;;;;13.54;63.69;98749.00;4476190;31;34554;-83
2024/02/23 10:09:46;;;;;;;3.67;0.60;;;;;;;13.50;63.13;98752.81;4465151;31;33325;-83
2024/02/23 10:12:16;;;;;;;1.08;0.85;;;;;;;13.58;63.36;98750.47;4490399;31;35191;-83
2024/02/23 10:14:44;;;;;;;0.68;0.15;;;;;;;13.68;62.92;98755.09;4463227;31;33471;-83
2024/02/23 10:17:11;;;;;;;0.82;0.82;;;;;;;13.67;63.03;98750.72;4478145;31;33287;-83
2024/02/23 10:19:39;;;;;;;1.75;0.93;;;;;;;13.63;63.11;98754.59;4489992;31;34023;-83
2024/02/23 10:22:07;;;;;;;0.10;0.10;;;;;;;13.69;63.01;98754.16;4464845;31;33577;-83
2024/02/23 10:24:36;;;;;;;2.30;1.20;;;;;;;13.61;63.44;98752.03;4489648;31;33314;-83
2024/02/23 10:27:04;;;;;;;0.75;0.28;;;;;;;13.53;63.10;98757.91;4490620;31;33978;-83
2024/02/23 10:29:32;;;;;;;0.52;0.52;;;;;;;13.56;63.29;98760.31;4476620;31;34344;-83
2024/02/23 10:32:01;;;;;;;2.47;1.30;;;;;;;13.60;63.31;98753.00;4494008;31;33944;-83
2024/02/23 10:34:29;;;;;;;1.92;1.25;;;;;;;13.68;63.13;98750.66;4471436;31;33332;-83
2024/02/23 10:36:57;;;;;;;1.37;0.43;;;;;;;13.65;63.24;98752.66;4493554;31;33781;-83
2024/02/23 10:39:27;;;;;;;0.47;0.47;;;;;;;13.71;62.97;98755.72;4477492;31;34636;-83
2024/02/23 10:42:03;;;;;;;0.20;0.20;;;;;;;13.82;62.68;98755.78;4480809;31;34642;-83
2024/02/23 10:44:31;;;;;;;1.12;1.05;;;;;;;13.85;62.89;98752.03;4479529;31;33249;-83
2024/02/23 10:47:00;;;;;;;1.30;1.20;;;;;;;13.84;62.93;98753.00;4477820;31;32241;-83
2024/02/23 10:49:28;;;;;;;1.40;0.93;;;;;;;13.77;62.69;98754.44;4491176;31;34031;-83
2024/02/23 10:51:56;;;;;;;1.05;0.98;;;;;;;13.82;62.56;98753.13;4476324;31;32757;-82
2024/02/23 10:54:25;;;;;;;0.25;0.25;;;;;;;13.87;62.07;98750.16;4483434;31;32966;-83
2024/02/23 10:56:55;;;;;;;1.58;0.88;;;;;;;13.73;61.94;98752.97;4474566;31;32839;-83
2024/02/23 10:59:23;;;;;;;0.35;0.25;;;;;;;13.69;62.13;98752.34;4486662;31;34598;-83
2024/02/23 11:01:52;;;;;;;0.85;0.30;;;;;;;13.57;61.84;98754.06;4463557;31;33344;-82
2024/02/23 11:04:21;;;;;;;0.30;0.22;;;;;;;13.72;61.80;98753.91;4490277;31;33370;-83
2024/02/23 11:06:50;;;;;;;0.20;0.20;;;;;;;13.74;61.34;98755.50;4471706;31;33667;-82
2024/02/23 11:09:23;;;;;;;0.28;0.28;;;;;;;13.77;61.35;98749.97;4485797;31;34477;-83
2024/02/23 11:11:55;;;;;;;0.88;0.88;;;;;;;13.65;61.17;98745.56;4462747;31;33120;-83
2024/02/23 11:14:37;;;;;;;0.35;0.35;;;;;;;13.93;60.90;98744.37;4487306;31;33377;-82
2024/02/23 11:17:05;;;;;;;0.15;0.15;;;;;;;13.96;61.04;98746.81;4476824;31;34463;-83
2024/02/23 11:19:35;;;;;;;0.00;0.00;;;;;;;13.38;61.46;98744.91;4486964;31;33877;-83
2024/02/23 11:22:04;;;;;;;0.73;0.73;;;;;;;13.61;61.28;98753.84;4466832;31;34285;-83
2024/02/23 11:24:34;;;;;;;0.00;0.00;;;;;;;13.81;60.05;98751.44;4488163;31;32541;-83
2024/02/23 11:27:11;;;;;;;0.17;0.17;;;;;;;13.95;59.90;98753.06;4472326;31;33740;-83
2024/02/23 11:29:40;;;;;;;0.85;0.85;;;;;;;13.92;59.46;98745.34;4477792;31;32293;-83
2024/02/23 11:32:20;;;;;;;2.17;0.88;;;;;;;13.83;59.62;98749.50;4474708;31;32979;-83
2024/02/23 11:34:56;;;;;;;0.32;0.32;;;;;;;13.78;60.33;98745.50;4491118;31;33035;-83
2024/02/23 11:37:28;;;;;;;1.65;0.62;;;;;;;13.80;59.58;98748.88;4464067;31;33862;-82
2024/02/23 11:39:56;;;;;;;0.75;0.57;;;;;;;13.92;59.10;98737.38;4461013;31;32824;-83